createdAt,value
2018-06-25T00:00:20.474Z,15.37
2018-06-25T00:01:01.034Z,15.44
2018-06-25T00:01:41.608Z,15.37
2018-06-25T00:02:22.189Z,15.36
2018-06-25T00:03:02.751Z,15.4
2018-06-25T00:03:43.308Z,15.31
2018-06-25T00:04:23.874Z,15.35
2018-06-25T00:05:04.411Z,15.31
2018-06-25T00:05:44.961Z,15.4
2018-06-25T00:06:25.517Z,15.33
2018-06-25T00:07:06.062Z,15.31
2018-06-25T00:07:46.615Z,15.35
2018-06-25T00:08:27.189Z,15.33
2018-06-25T00:09:07.756Z,15.29
2018-06-25T00:09:48.322Z,15.4
2018-06-25T00:10:28.905Z,15.27
2018-06-25T00:11:09.458Z,15.36
2018-06-25T00:11:50.013Z,15.36
2018-06-25T00:12:30.603Z,15.35
2018-06-25T00:13:11.178Z,15.31
2018-06-25T00:13:51.740Z,15.36
2018-06-25T00:14:32.315Z,15.28
2018-06-25T00:15:12.880Z,15.27
2018-06-25T00:15:53.459Z,15.33
2018-06-25T00:16:34.028Z,15.29
2018-06-25T00:17:14.595Z,15.31
2018-06-25T00:17:55.155Z,15.28
2018-06-25T00:18:35.707Z,15.36
2018-06-25T00:19:16.283Z,15.25
2018-06-25T00:19:56.842Z,15.25
2018-06-25T00:20:37.414Z,15.31
2018-06-25T00:21:17.982Z,15.28
2018-06-25T00:21:58.536Z,15.25
2018-06-25T00:22:39.112Z,15.27
2018-06-25T00:23:19.687Z,15.29
2018-06-25T00:24:00.263Z,15.29
2018-06-25T00:24:40.829Z,15.33
2018-06-25T00:25:21.386Z,15.29
2018-06-25T00:26:01.963Z,15.33
2018-06-25T00:26:42.528Z,15.25
2018-06-25T00:27:23.091Z,15.28
2018-06-25T00:28:03.648Z,15.29
2018-06-25T00:28:44.200Z,15.35
2018-06-25T00:29:24.791Z,15.28
2018-06-25T00:30:05.376Z,15.21
2018-06-25T00:30:45.956Z,15.21
2018-06-25T00:31:26.506Z,15.31
2018-06-25T00:32:07.067Z,15.27
2018-06-25T00:32:47.607Z,15.29
2018-06-25T00:33:28.154Z,15.28
2018-06-25T00:34:08.708Z,15.27
2018-06-25T00:34:49.273Z,15.22
2018-06-25T00:35:29.811Z,15.27
2018-06-25T00:36:10.381Z,15.28
2018-06-25T00:36:50.935Z,15.27
2018-06-25T00:37:31.507Z,15.27
2018-06-25T00:38:12.076Z,15.24
2018-06-25T00:38:52.640Z,15.22
2018-06-25T00:39:33.196Z,15.28
2018-06-25T00:40:13.757Z,15.31
2018-06-25T00:40:54.317Z,15.27
2018-06-25T00:41:34.882Z,15.18
2018-06-25T00:42:15.437Z,15.24
2018-06-25T00:42:56.000Z,15.15
2018-06-25T00:43:36.571Z,15.24
2018-06-25T00:44:17.159Z,15.25
2018-06-25T00:44:57.761Z,15.18
2018-06-25T00:45:38.284Z,15.21
2018-06-25T00:46:18.858Z,15.11
2018-06-25T00:46:59.420Z,15.11
2018-06-25T00:47:40.005Z,15.18
2018-06-25T00:48:20.656Z,15.11
2018-06-25T00:49:01.229Z,15.22
2018-06-25T00:49:41.814Z,15.09
2018-06-25T00:50:22.391Z,15.09
2018-06-25T00:51:02.946Z,15.11
2018-06-25T00:51:43.504Z,15.07
2018-06-25T00:52:24.080Z,15.07
2018-06-25T00:53:04.638Z,15.07
2018-06-25T00:53:45.227Z,15.11
2018-06-25T00:54:25.795Z,15.09
2018-06-25T00:55:06.367Z,15.11
2018-06-25T00:55:46.922Z,15.07
2018-06-25T00:56:27.475Z,15.14
2018-06-25T00:57:08.068Z,15.11
2018-06-25T00:57:48.625Z,15.1
2018-06-25T00:58:29.201Z,15.15
2018-06-25T00:59:09.775Z,15.11
2018-06-25T00:59:50.363Z,15.09
2018-06-25T01:00:30.930Z,15.11
2018-06-25T01:01:11.539Z,15.06
2018-06-25T01:01:52.211Z,15.06
2018-06-25T01:02:32.759Z,15.04
2018-06-25T01:03:13.326Z,15.06
2018-06-25T01:03:53.904Z,15.06
2018-06-25T01:04:34.486Z,15.14
2018-06-25T01:05:15.058Z,15.07
2018-06-25T01:05:55.687Z,15.1
2018-06-25T01:06:36.233Z,15.11
2018-06-25T01:07:16.807Z,15.06
2018-06-25T01:07:57.363Z,15.04
2018-06-25T01:08:37.921Z,15.06
2018-06-25T01:09:18.497Z,15.1
2018-06-25T01:09:59.073Z,15.15
2018-06-25T01:10:39.635Z,15.06
2018-06-25T01:11:20.195Z,15.09
2018-06-25T01:12:00.762Z,15.11
2018-06-25T01:12:41.328Z,15.11
2018-06-25T01:13:21.873Z,15.09
2018-06-25T01:14:02.422Z,15.11
2018-06-25T01:14:42.980Z,15.11
2018-06-25T01:15:23.551Z,15.1
2018-06-25T01:16:04.114Z,15.09
2018-06-25T01:16:44.680Z,15.19
2018-06-25T01:17:25.265Z,15.19
2018-06-25T01:18:05.806Z,15.14
2018-06-25T01:18:46.369Z,15.1
2018-06-25T01:19:26.909Z,15.14
2018-06-25T01:20:07.459Z,15.11
2018-06-25T01:20:48.013Z,15.07
2018-06-25T01:21:28.579Z,15.15
2018-06-25T01:22:09.130Z,15.09
2018-06-25T01:22:49.669Z,15.11
2018-06-25T01:23:30.230Z,15.18
2018-06-25T01:24:10.801Z,15.09
2018-06-25T01:24:51.376Z,15.09
2018-06-25T01:25:31.942Z,15.1
2018-06-25T01:26:12.528Z,15.1
2018-06-25T01:26:53.093Z,15.1
2018-06-25T01:27:33.650Z,15.11
2018-06-25T01:28:14.248Z,15.11
2018-06-25T01:28:54.817Z,15.18
2018-06-25T01:29:35.375Z,15.1
2018-06-25T01:30:15.938Z,15.1
2018-06-25T01:30:56.506Z,15.18
2018-06-25T01:31:37.065Z,15.17
2018-06-25T01:32:17.628Z,15.11
2018-06-25T01:32:58.200Z,15.17
2018-06-25T01:33:38.783Z,15.14
2018-06-25T01:34:19.369Z,15.09
2018-06-25T01:34:59.953Z,15.09
2018-06-25T01:35:40.505Z,15.15
2018-06-25T01:36:21.057Z,15.09
2018-06-25T01:37:01.634Z,15.07
2018-06-25T01:37:42.168Z,15.11
2018-06-25T01:38:22.736Z,15.1
2018-06-25T01:39:03.291Z,15.14
2018-06-25T01:39:43.839Z,15.1
2018-06-25T01:40:24.388Z,15.09
2018-06-25T01:41:04.954Z,15.1
2018-06-25T01:41:45.557Z,15.09
2018-06-25T01:42:26.060Z,15.11
2018-06-25T01:43:06.628Z,15.15
2018-06-25T01:43:47.188Z,15.06
2018-06-25T01:44:27.741Z,15.07
2018-06-25T01:45:08.325Z,15.09
2018-06-25T01:45:48.886Z,15.09
2018-06-25T01:46:29.439Z,15.11
2018-06-25T01:47:09.992Z,15.14
2018-06-25T01:47:50.552Z,15.1
2018-06-25T01:48:31.096Z,15.15
2018-06-25T01:49:11.668Z,15.1
2018-06-25T01:49:52.237Z,15.11
2018-06-25T01:50:32.861Z,15.15
2018-06-25T01:51:13.435Z,15.07
2018-06-25T01:51:53.971Z,15.14
2018-06-25T01:52:34.541Z,15.18
2018-06-25T01:53:15.096Z,15.1
2018-06-25T01:53:55.652Z,15.17
2018-06-25T01:54:36.257Z,15.09
2018-06-25T01:55:16.801Z,15.09
2018-06-25T01:55:57.372Z,15.11
2018-06-25T01:56:37.922Z,15.11
2018-06-25T01:57:18.474Z,15.14
2018-06-25T01:57:59.044Z,15.09
2018-06-25T01:58:39.599Z,15.1
2018-06-25T01:59:20.197Z,15.11
2018-06-25T02:00:00.745Z,15.09
2018-06-25T02:00:41.314Z,15.15
2018-06-25T02:01:21.864Z,15.14
2018-06-25T02:02:02.425Z,15.15
2018-06-25T02:02:42.970Z,15.11
2018-06-25T02:03:23.514Z,15.09
2018-06-25T02:04:04.096Z,15.09
2018-06-25T02:04:44.640Z,15.1
2018-06-25T02:05:25.192Z,15.1
2018-06-25T02:06:05.764Z,15.09
2018-06-25T02:06:46.320Z,15.14
2018-06-25T02:07:26.892Z,15.09
2018-06-25T02:08:07.446Z,15.11
2018-06-25T02:08:47.999Z,15.09
2018-06-25T02:09:28.557Z,15.17
2018-06-25T02:10:09.118Z,15.15
2018-06-25T02:10:49.673Z,15.09
2018-06-25T02:11:30.226Z,15.11
2018-06-25T02:12:10.795Z,15.14
2018-06-25T02:12:51.347Z,15.09
2018-06-25T02:13:31.901Z,15.14
2018-06-25T02:14:12.449Z,15.1
2018-06-25T02:14:53.057Z,15.11
2018-06-25T02:15:33.567Z,15.1
2018-06-25T02:16:14.141Z,15.04
2018-06-25T02:16:54.694Z,15.1
2018-06-25T02:17:35.278Z,15.15
2018-06-25T02:18:15.842Z,15.14
2018-06-25T02:18:56.407Z,15.15
2018-06-25T02:19:36.961Z,15.09
2018-06-25T02:20:17.507Z,15.03
2018-06-25T02:20:58.065Z,15.09
2018-06-25T02:21:38.608Z,15.15
2018-06-25T02:22:19.163Z,15.11
2018-06-25T02:22:59.732Z,15.09
2018-06-25T02:23:40.297Z,15.15
2018-06-25T02:24:20.848Z,15.1
2018-06-25T02:25:01.456Z,15.09
2018-06-25T02:25:41.977Z,15.11
2018-06-25T02:26:22.545Z,15.09
2018-06-25T02:27:03.094Z,15.09
2018-06-25T02:27:43.631Z,15.1
2018-06-25T02:28:24.192Z,15.09
2018-06-25T02:29:04.763Z,15.17
2018-06-25T02:29:45.308Z,15.07
2018-06-25T02:30:25.904Z,15.09
2018-06-25T02:31:06.458Z,15.09
2018-06-25T02:31:47.025Z,15.09
2018-06-25T02:32:27.588Z,15.1
2018-06-25T02:33:08.150Z,15.1
2018-06-25T02:33:48.682Z,15.1
2018-06-25T02:34:29.236Z,15.1
2018-06-25T02:35:09.799Z,15.09
2018-06-25T02:35:50.366Z,15.11
2018-06-25T02:36:30.928Z,15.1
2018-06-25T02:37:11.489Z,15.1
2018-06-25T02:37:52.084Z,15.09
2018-06-25T02:38:32.678Z,15.04
2018-06-25T02:39:13.191Z,15.14
2018-06-25T02:39:53.736Z,15.04
2018-06-25T02:40:34.297Z,15.14
2018-06-25T02:41:14.870Z,15.07
2018-06-25T02:41:55.427Z,15.1
2018-06-25T02:42:35.994Z,15.06
2018-06-25T02:43:16.572Z,15.09
2018-06-25T02:43:57.128Z,15.11
2018-06-25T02:44:37.692Z,15.1
2018-06-25T02:45:18.250Z,15.03
2018-06-25T02:45:58.802Z,15.07
2018-06-25T02:46:39.346Z,15.06
2018-06-25T02:47:19.899Z,15.02
2018-06-25T02:48:00.468Z,15.02
2018-06-25T02:48:41.027Z,15.03
2018-06-25T02:49:21.594Z,15.03
2018-06-25T02:50:02.153Z,15.15
2018-06-25T02:50:42.698Z,14.99
2018-06-25T02:51:23.268Z,15.06
2018-06-25T02:52:03.820Z,15.04
2018-06-25T02:52:44.376Z,15.04
2018-06-25T02:53:24.929Z,15.06
2018-06-25T02:54:05.490Z,14.99
2018-06-25T02:54:46.038Z,15
2018-06-25T02:55:26.604Z,14.91
2018-06-25T02:56:07.170Z,14.92
2018-06-25T02:56:47.726Z,14.97
2018-06-25T02:57:28.294Z,14.97
2018-06-25T02:58:08.855Z,14.94
2018-06-25T02:58:49.405Z,15
2018-06-25T02:59:29.975Z,15.02
2018-06-25T03:00:10.527Z,14.96
2018-06-25T03:00:51.085Z,14.94
2018-06-25T03:01:31.652Z,15
2018-06-25T03:02:12.209Z,15.04
2018-06-25T03:02:52.767Z,15.03
2018-06-25T03:03:33.340Z,15
2018-06-25T03:04:13.906Z,15
2018-06-25T03:04:54.461Z,14.94
2018-06-25T03:05:35.036Z,15
2018-06-25T03:06:15.583Z,14.94
2018-06-25T03:06:56.123Z,14.94
2018-06-25T03:07:36.713Z,14.96
2018-06-25T03:08:17.268Z,14.91
2018-06-25T03:08:57.821Z,15.03
2018-06-25T03:09:38.370Z,15
2018-06-25T03:10:18.946Z,14.91
2018-06-25T03:10:59.507Z,14.97
2018-06-25T03:11:40.069Z,15.02
2018-06-25T03:12:20.651Z,14.92
2018-06-25T03:13:01.216Z,15.02
2018-06-25T03:13:41.774Z,15
2018-06-25T03:14:22.333Z,14.99
2018-06-25T03:15:02.898Z,14.96
2018-06-25T03:15:43.512Z,14.91
2018-06-25T03:16:24.090Z,14.94
2018-06-25T03:17:04.634Z,14.94
2018-06-25T03:17:45.209Z,14.94
2018-06-25T03:18:25.769Z,15
2018-06-25T03:19:06.313Z,14.99
2018-06-25T03:19:46.866Z,14.91
2018-06-25T03:20:27.419Z,14.99
2018-06-25T03:21:07.976Z,14.97
2018-06-25T03:21:48.527Z,14.94
2018-06-25T03:22:29.076Z,14.96
2018-06-25T03:23:09.636Z,14.91
2018-06-25T03:23:50.188Z,14.94
2018-06-25T03:24:30.740Z,14.96
2018-06-25T03:25:11.315Z,14.91
2018-06-25T03:25:51.864Z,14.94
2018-06-25T03:26:32.390Z,15.06
2018-06-25T03:27:12.934Z,14.94
2018-06-25T03:27:53.485Z,15
2018-06-25T03:28:34.023Z,14.96
2018-06-25T03:29:14.572Z,14.99
2018-06-25T03:29:55.137Z,14.94
2018-06-25T03:30:35.690Z,15
2018-06-25T03:31:16.249Z,14.97
2018-06-25T03:31:56.818Z,14.97
2018-06-25T03:32:37.371Z,15
2018-06-25T03:33:17.930Z,14.96
2018-06-25T03:33:58.506Z,15
2018-06-25T03:34:39.051Z,14.97
2018-06-25T03:35:19.650Z,14.92
2018-06-25T03:36:00.183Z,14.91
2018-06-25T03:36:40.742Z,14.89
2018-06-25T03:37:21.295Z,14.94
2018-06-25T03:38:01.850Z,14.92
2018-06-25T03:38:42.435Z,14.89
2018-06-25T03:39:22.994Z,14.86
2018-06-25T03:40:03.538Z,14.96
2018-06-25T03:40:44.105Z,14.86
2018-06-25T03:41:24.660Z,14.86
2018-06-25T03:42:05.225Z,14.84
2018-06-25T03:42:45.791Z,14.91
2018-06-25T03:43:26.364Z,14.92
2018-06-25T03:44:06.937Z,14.89
2018-06-25T03:44:47.478Z,14.84
2018-06-25T03:45:28.029Z,14.91
2018-06-25T03:46:08.595Z,14.88
2018-06-25T03:46:49.156Z,14.91
2018-06-25T03:47:29.710Z,14.88
2018-06-25T03:48:10.306Z,14.96
2018-06-25T03:48:50.864Z,14.88
2018-06-25T03:49:31.413Z,14.89
2018-06-25T03:50:11.961Z,14.85
2018-06-25T03:50:52.527Z,14.85
2018-06-25T03:51:33.086Z,14.79
2018-06-25T03:52:13.700Z,14.84
2018-06-25T03:52:54.264Z,14.79
2018-06-25T03:53:34.847Z,14.84
2018-06-25T03:54:15.393Z,14.86
2018-06-25T03:54:55.960Z,14.79
2018-06-25T03:55:36.521Z,14.78
2018-06-25T03:56:17.102Z,14.84
2018-06-25T03:56:57.650Z,14.81
2018-06-25T03:57:38.225Z,14.85
2018-06-25T03:58:18.775Z,14.73
2018-06-25T03:58:59.338Z,14.72
2018-06-25T03:59:39.911Z,14.68
2018-06-25T04:00:20.468Z,14.68
2018-06-25T04:01:01.042Z,14.68
2018-06-25T04:01:41.593Z,14.66
2018-06-25T04:02:22.181Z,14.68
2018-06-25T04:03:02.735Z,14.73
2018-06-25T04:03:43.313Z,14.66
2018-06-25T04:04:23.839Z,14.69
2018-06-25T04:05:04.400Z,14.73
2018-06-25T04:05:44.971Z,14.69
2018-06-25T04:06:25.529Z,14.63
2018-06-25T04:07:06.078Z,14.69
2018-06-25T04:07:46.642Z,14.73
2018-06-25T04:08:27.197Z,14.68
2018-06-25T04:09:07.760Z,14.7
2018-06-25T04:09:48.329Z,14.55
2018-06-25T04:10:28.899Z,14.72
2018-06-25T04:11:09.469Z,14.69
2018-06-25T04:11:50.032Z,14.69
2018-06-25T04:12:30.590Z,14.7
2018-06-25T04:13:11.143Z,14.63
2018-06-25T04:13:51.715Z,14.66
2018-06-25T04:14:32.282Z,14.68
2018-06-25T04:15:12.849Z,14.68
2018-06-25T04:15:53.429Z,14.72
2018-06-25T04:16:33.981Z,14.7
2018-06-25T04:17:14.536Z,14.66
2018-06-25T04:17:55.088Z,14.68
2018-06-25T04:18:35.648Z,14.66
2018-06-25T04:19:16.209Z,14.66
2018-06-25T04:19:56.768Z,14.78
2018-06-25T04:20:37.403Z,14.69
2018-06-25T04:21:17.884Z,14.69
2018-06-25T04:21:58.462Z,14.73
2018-06-25T04:22:39.025Z,14.81
2018-06-25T04:23:19.580Z,14.68
2018-06-25T04:24:00.149Z,14.79
2018-06-25T04:24:40.699Z,14.69
2018-06-25T04:25:21.258Z,14.81
2018-06-25T04:26:01.824Z,14.69
2018-06-25T04:26:42.385Z,14.66
2018-06-25T04:27:22.939Z,14.79
2018-06-25T04:28:03.508Z,14.68
2018-06-25T04:28:44.062Z,14.66
2018-06-25T04:29:24.627Z,14.72
2018-06-25T04:30:05.206Z,14.7
2018-06-25T04:30:45.843Z,14.69
2018-06-25T04:31:26.333Z,14.69
2018-06-25T04:32:06.905Z,14.7
2018-06-25T04:32:47.472Z,14.81
2018-06-25T04:33:28.037Z,14.79
2018-06-25T04:34:08.603Z,14.77
2018-06-25T04:34:49.158Z,14.73
2018-06-25T04:35:29.717Z,14.69
2018-06-25T04:36:10.270Z,14.82
2018-06-25T04:36:50.815Z,14.79
2018-06-25T04:37:31.368Z,14.81
2018-06-25T04:38:11.916Z,14.84
2018-06-25T04:38:52.473Z,14.79
2018-06-25T04:39:33.033Z,14.82
2018-06-25T04:40:13.604Z,14.86
2018-06-25T04:40:54.159Z,14.81
2018-06-25T04:41:34.732Z,14.81
2018-06-25T04:42:15.268Z,14.84
2018-06-25T04:42:55.838Z,14.78
2018-06-25T04:43:36.394Z,14.78
2018-06-25T04:44:16.957Z,14.81
2018-06-25T04:44:57.496Z,14.77
2018-06-25T04:45:38.065Z,14.89
2018-06-25T04:46:18.620Z,14.82
2018-06-25T04:46:59.214Z,14.84
2018-06-25T04:47:39.764Z,14.86
2018-06-25T04:48:20.325Z,14.88
2018-06-25T04:49:00.895Z,14.82
2018-06-25T04:49:41.440Z,14.92
2018-06-25T04:50:22.003Z,14.91
2018-06-25T04:51:02.550Z,14.88
2018-06-25T04:51:43.110Z,14.89
2018-06-25T04:52:23.676Z,14.81
2018-06-25T04:53:04.214Z,14.88
2018-06-25T04:53:44.777Z,14.88
2018-06-25T04:54:25.334Z,14.91
2018-06-25T04:55:05.885Z,14.88
2018-06-25T04:55:46.434Z,14.89
2018-06-25T04:56:26.997Z,14.89
2018-06-25T04:57:07.565Z,14.88
2018-06-25T04:57:48.127Z,14.85
2018-06-25T04:58:28.699Z,14.82
2018-06-25T04:59:09.248Z,14.91
2018-06-25T04:59:49.813Z,14.96
2018-06-25T05:00:30.377Z,14.92
2018-06-25T05:01:10.979Z,14.89
2018-06-25T05:01:51.488Z,14.94
2018-06-25T05:02:32.040Z,14.94
2018-06-25T05:03:12.595Z,14.89
2018-06-25T05:03:53.155Z,14.97
2018-06-25T05:04:33.707Z,15.06
2018-06-25T05:05:14.268Z,15.15
2018-06-25T05:05:54.814Z,15.27
2018-06-25T05:06:35.385Z,15.27
2018-06-25T05:07:15.972Z,15.37
2018-06-25T05:07:56.532Z,15.44
2018-06-25T05:08:37.093Z,15.55
2018-06-25T05:09:17.654Z,15.58
2018-06-25T05:09:58.222Z,15.62
2018-06-25T05:10:38.791Z,15.7
2018-06-25T05:11:19.388Z,15.82
2018-06-25T05:11:59.922Z,15.84
2018-06-25T05:12:40.485Z,15.9
2018-06-25T05:13:21.047Z,15.9
2018-06-25T05:14:01.608Z,15.97
2018-06-25T05:14:42.151Z,15.97
2018-06-25T05:15:22.695Z,16.04
2018-06-25T05:16:03.252Z,15.98
2018-06-25T05:16:43.804Z,16.05
2018-06-25T05:17:24.380Z,16.12
2018-06-25T05:18:04.933Z,16.21
2018-06-25T05:18:45.497Z,16.24
2018-06-25T05:19:26.070Z,16.23
2018-06-25T05:20:06.637Z,16.26
2018-06-25T05:20:47.193Z,16.21
2018-06-25T05:21:27.744Z,16.29
2018-06-25T05:22:08.326Z,16.24
2018-06-25T05:22:48.894Z,16.29
2018-06-25T05:23:29.518Z,16.38
2018-06-25T05:24:10.063Z,16.38
2018-06-25T05:24:50.630Z,16.38
2018-06-25T05:25:31.184Z,16.41
2018-06-25T05:26:11.768Z,16.43
2018-06-25T05:26:52.350Z,16.43
2018-06-25T05:27:32.922Z,16.49
2018-06-25T05:28:13.488Z,16.54
2018-06-25T05:28:54.064Z,16.56
2018-06-25T05:29:34.620Z,16.56
2018-06-25T05:30:15.186Z,16.58
2018-06-25T05:30:55.766Z,16.56
2018-06-25T05:31:36.312Z,16.54
2018-06-25T05:32:16.858Z,16.54
2018-06-25T05:32:57.421Z,16.6
2018-06-25T05:33:37.997Z,16.54
2018-06-25T05:34:18.555Z,16.56
2018-06-25T05:34:59.112Z,16.6
2018-06-25T05:35:39.688Z,16.65
2018-06-25T05:36:20.241Z,16.61
2018-06-25T05:37:00.811Z,16.58
2018-06-25T05:37:41.376Z,16.66
2018-06-25T05:38:21.937Z,16.61
2018-06-25T05:39:02.514Z,16.61
2018-06-25T05:39:43.153Z,16.61
2018-06-25T05:40:23.692Z,16.66
2018-06-25T05:41:04.227Z,16.64
2018-06-25T05:41:45.001Z,16.61
2018-06-25T05:42:25.894Z,16.6
2018-06-25T05:43:06.571Z,16.69
2018-06-25T05:43:47.180Z,16.68
2018-06-25T05:44:29.124Z,16.71
2018-06-25T05:45:09.839Z,16.68
2018-06-25T05:45:50.418Z,16.66
2018-06-25T05:46:31.006Z,16.71
2018-06-25T05:47:11.551Z,16.69
2018-06-25T05:47:52.184Z,16.76
2018-06-25T05:48:32.738Z,16.72
2018-06-25T05:49:13.296Z,16.68
2018-06-25T05:49:53.844Z,16.69
2018-06-25T05:50:34.498Z,16.72
2018-06-25T05:51:15.011Z,16.65
2018-06-25T05:51:55.692Z,16.69
2018-06-25T05:52:36.284Z,16.68
2018-06-25T05:53:16.875Z,16.69
2018-06-25T05:53:57.438Z,16.74
2018-06-25T05:54:38.002Z,16.72
2018-06-25T05:55:18.556Z,16.72
2018-06-25T05:55:59.139Z,16.66
2018-06-25T05:56:39.747Z,16.71
2018-06-25T05:57:20.322Z,16.65
2018-06-25T05:58:00.973Z,16.64
2018-06-25T05:58:41.825Z,16.71
2018-06-25T05:59:22.393Z,16.79
2018-06-25T06:00:03.277Z,16.71
2018-06-25T06:00:44.000Z,16.76
2018-06-25T06:01:24.551Z,16.75
2018-06-25T06:02:05.111Z,16.72
2018-06-25T06:02:45.790Z,16.65
2018-06-25T06:03:26.364Z,16.64
2018-06-25T06:04:06.916Z,16.54
2018-06-25T06:04:47.470Z,16.5
2018-06-25T06:05:28.038Z,16.36
2018-06-25T06:06:08.592Z,16.38
2018-06-25T06:06:49.137Z,16.39
2018-06-25T06:07:29.709Z,16.32
2018-06-25T06:08:10.301Z,16.32
2018-06-25T06:08:50.897Z,16.33
2018-06-25T06:09:31.457Z,16.29
2018-06-25T06:10:12.007Z,16.35
2018-06-25T06:10:52.574Z,16.35
2018-06-25T06:11:33.138Z,16.39
2018-06-25T06:12:13.776Z,16.42
2018-06-25T06:12:54.343Z,16.39
2018-06-25T06:13:34.905Z,16.43
2018-06-25T06:14:15.526Z,16.54
2018-06-25T06:14:56.090Z,16.53
2018-06-25T06:15:36.815Z,16.51
2018-06-25T06:16:17.460Z,16.57
2018-06-25T06:16:58.010Z,16.68
2018-06-25T06:17:38.582Z,16.6
2018-06-25T06:18:19.297Z,16.57
2018-06-25T06:18:59.960Z,16.66
2018-06-25T06:19:40.534Z,16.65
2018-06-25T06:20:21.170Z,16.75
2018-06-25T06:21:01.818Z,16.71
2018-06-25T06:21:42.432Z,16.64
2018-06-25T06:22:23.084Z,16.61
2018-06-25T06:23:03.634Z,16.69
2018-06-25T06:23:44.204Z,16.72
2018-06-25T06:24:24.786Z,16.76
2018-06-25T06:25:05.331Z,16.66
2018-06-25T06:25:46.057Z,16.69
2018-06-25T06:26:26.622Z,16.74
2018-06-25T06:27:07.189Z,16.76
2018-06-25T06:27:47.738Z,16.72
2018-06-25T06:28:28.349Z,16.83
2018-06-25T06:29:08.934Z,16.75
2018-06-25T06:29:49.489Z,16.79
2018-06-25T06:30:30.058Z,16.74
2018-06-25T06:31:10.613Z,16.79
2018-06-25T06:31:51.179Z,16.79
2018-06-25T06:32:32.190Z,16.64
2018-06-25T06:33:12.809Z,16.68
2018-06-25T06:33:53.356Z,16.78
2018-06-25T06:34:34.032Z,16.68
2018-06-25T06:35:14.621Z,16.64
2018-06-25T06:35:55.178Z,16.72
2018-06-25T06:36:35.769Z,16.65
2018-06-25T06:37:16.343Z,16.68
2018-06-25T06:37:56.909Z,16.68
2018-06-25T06:38:37.632Z,16.69
2018-06-25T06:39:18.612Z,16.68
2018-06-25T06:39:59.168Z,16.64
2018-06-25T06:40:39.724Z,16.6
2018-06-25T06:41:20.295Z,16.58
2018-06-25T06:42:00.857Z,16.53
2018-06-25T06:42:41.412Z,16.53
2018-06-25T06:43:22.415Z,16.5
2018-06-25T06:44:02.975Z,16.41
2018-06-25T06:44:43.955Z,16.35
2018-06-25T06:45:24.611Z,16.35
2018-06-25T06:46:05.404Z,16.33
2018-06-25T06:46:45.936Z,16.32
2018-06-25T06:47:26.489Z,16.33
2018-06-25T06:48:07.061Z,16.38
2018-06-25T06:48:47.635Z,16.46
2018-06-25T06:49:28.199Z,16.49
2018-06-25T06:50:08.767Z,16.54
2018-06-25T06:50:49.342Z,16.58
2018-06-25T06:51:29.986Z,16.61
2018-06-25T06:52:10.523Z,16.64
2018-06-25T06:52:51.118Z,16.65
2018-06-25T06:53:31.641Z,16.72
2018-06-25T06:54:12.273Z,16.72
2018-06-25T06:54:52.844Z,16.68
2018-06-25T06:55:33.443Z,16.72
2018-06-25T06:56:14.015Z,16.61
2018-06-25T06:56:54.562Z,16.68
2018-06-25T06:57:35.271Z,16.68
2018-06-25T06:58:15.781Z,16.65
2018-06-25T06:58:56.339Z,16.61
2018-06-25T06:59:36.907Z,16.51
2018-06-25T07:00:17.448Z,16.54
2018-06-25T07:00:58.068Z,16.54
2018-06-25T07:01:38.671Z,16.54
2018-06-25T07:02:19.274Z,16.5
2018-06-25T07:02:59.840Z,16.43
2018-06-25T07:03:40.445Z,16.38
2018-06-25T07:04:20.980Z,16.36
2018-06-25T07:05:01.562Z,16.46
2018-06-25T07:05:42.144Z,16.43
2018-06-25T07:06:22.734Z,16.47
2018-06-25T07:07:03.275Z,16.51
2018-06-25T07:07:43.864Z,16.5
2018-06-25T07:08:24.418Z,16.53
2018-06-25T07:09:04.994Z,16.61
2018-06-25T07:09:45.584Z,16.53
2018-06-25T07:10:26.176Z,16.54
2018-06-25T07:11:06.737Z,16.56
2018-06-25T07:11:47.297Z,16.57
2018-06-25T07:12:28.716Z,16.56
2018-06-25T07:13:09.349Z,16.56
2018-06-25T07:13:49.898Z,16.61
2018-06-25T07:14:30.424Z,16.54
2018-06-25T07:15:11.074Z,16.6
2018-06-25T07:15:51.694Z,16.65
2018-06-25T07:16:32.255Z,16.64
2018-06-25T07:17:12.974Z,16.6
2018-06-25T07:17:53.573Z,16.56
2018-06-25T07:18:34.141Z,16.47
2018-06-25T07:19:14.701Z,16.43
2018-06-25T07:19:55.339Z,16.42
2018-06-25T07:20:35.799Z,16.43
2018-06-25T07:21:16.486Z,16.46
2018-06-25T07:21:57.057Z,16.5
2018-06-25T07:22:37.607Z,16.54
2018-06-25T07:23:18.252Z,16.51
2018-06-25T07:23:58.810Z,16.5
2018-06-25T07:24:39.384Z,16.49
2018-06-25T07:25:19.969Z,16.54
2018-06-25T07:26:00.494Z,16.53
2018-06-25T07:26:41.076Z,16.56
2018-06-25T07:27:21.680Z,16.56
2018-06-25T07:28:02.241Z,16.6
2018-06-25T07:28:42.850Z,16.6
2018-06-25T07:29:23.421Z,16.56
2018-06-25T07:30:04.002Z,16.56
2018-06-25T07:30:44.576Z,16.6
2018-06-25T07:31:25.167Z,16.53
2018-06-25T07:32:05.695Z,16.43
2018-06-25T07:32:46.287Z,16.49
2018-06-25T07:33:26.897Z,16.32
2018-06-25T07:34:07.577Z,16.39
2018-06-25T07:34:48.087Z,16.33
2018-06-25T07:35:28.675Z,16.24
2018-06-25T07:36:09.344Z,16.17
2018-06-25T07:36:49.975Z,16.17
2018-06-25T07:37:30.559Z,16.1
2018-06-25T07:38:11.151Z,16.09
2018-06-25T07:38:51.764Z,16.1
2018-06-25T07:39:32.351Z,16.02
2018-06-25T07:40:12.910Z,16.09
2018-06-25T07:40:53.510Z,16.01
2018-06-25T07:41:34.030Z,15.94
2018-06-25T07:42:14.621Z,15.97
2018-06-25T07:42:55.171Z,16
2018-06-25T07:43:35.795Z,15.97
2018-06-25T07:44:16.443Z,16.01
2018-06-25T07:44:56.973Z,16.05
2018-06-25T07:45:38.232Z,16.01
2018-06-25T07:46:18.828Z,16.09
2018-06-25T07:46:59.519Z,16
2018-06-25T07:47:40.084Z,15.98
2018-06-25T07:48:20.804Z,15.98
2018-06-25T07:49:01.348Z,16.04
2018-06-25T07:49:41.905Z,16.02
2018-06-25T07:50:22.856Z,16
2018-06-25T07:51:03.500Z,15.98
2018-06-25T07:51:44.160Z,16.1
2018-06-25T07:52:24.735Z,16.09
2018-06-25T07:53:05.317Z,16.1
2018-06-25T07:53:45.881Z,16
2018-06-25T07:54:26.460Z,16
2018-06-25T07:55:07.156Z,15.98
2018-06-25T07:55:47.766Z,16.05
2018-06-25T07:56:28.334Z,15.98
2018-06-25T07:57:08.896Z,15.86
2018-06-25T07:57:49.610Z,15.94
2018-06-25T07:58:30.184Z,15.9
2018-06-25T07:59:10.809Z,15.83
2018-06-25T07:59:51.391Z,15.94
2018-06-25T08:00:31.987Z,15.97
2018-06-25T08:01:12.565Z,15.92
2018-06-25T08:01:53.367Z,15.98
2018-06-25T08:02:33.907Z,15.98
2018-06-25T08:03:14.454Z,15.97
2018-06-25T08:03:55.108Z,16.08
2018-06-25T08:04:35.768Z,16.05
2018-06-25T08:05:16.314Z,16.2
2018-06-25T08:05:56.928Z,16.09
2018-06-25T08:06:37.512Z,16.17
2018-06-25T08:07:18.134Z,16.21
2018-06-25T08:07:58.790Z,16.29
2018-06-25T08:08:39.355Z,16.32
2018-06-25T08:09:19.976Z,16.31
2018-06-25T08:10:00.757Z,16.39
2018-06-25T08:10:41.443Z,16.47
2018-06-25T08:11:22.096Z,16.47
2018-06-25T08:12:02.807Z,16.54
2018-06-25T08:12:43.341Z,16.53
2018-06-25T08:13:23.942Z,16.54
2018-06-25T08:14:04.533Z,16.58
2018-06-25T08:14:45.228Z,16.54
2018-06-25T08:15:25.704Z,16.51
2018-06-25T08:16:06.313Z,16.5
2018-06-25T08:16:46.988Z,16.43
2018-06-25T08:17:27.597Z,16.41
2018-06-25T08:18:08.141Z,16.42
2018-06-25T08:18:48.713Z,16.36
2018-06-25T08:19:29.320Z,16.36
2018-06-25T08:20:09.894Z,16.32
2018-06-25T08:20:50.442Z,16.29
2018-06-25T08:21:30.990Z,16.29
2018-06-25T08:22:11.547Z,16.35
2018-06-25T08:22:52.101Z,16.35
2018-06-25T08:23:32.677Z,16.24
2018-06-25T08:24:13.246Z,16.35
2018-06-25T08:24:53.812Z,16.26
2018-06-25T08:25:34.390Z,16.17
2018-06-25T08:26:14.931Z,16.05
2018-06-25T08:26:55.635Z,16.05
2018-06-25T08:27:36.196Z,16.01
2018-06-25T08:28:16.962Z,16.04
2018-06-25T08:28:57.364Z,15.98
2018-06-25T08:29:37.928Z,15.94
2018-06-25T08:30:18.593Z,15.97
2018-06-25T08:30:59.142Z,15.98
2018-06-25T08:31:39.691Z,16.1
2018-06-25T08:32:20.249Z,15.98
2018-06-25T08:33:00.815Z,16
2018-06-25T08:33:41.443Z,15.98
2018-06-25T08:34:22.184Z,16.1
2018-06-25T08:35:02.577Z,16.09
2018-06-25T08:35:43.504Z,16.1
2018-06-25T08:36:24.108Z,16.13
2018-06-25T08:37:04.739Z,16.1
2018-06-25T08:37:45.240Z,16.12
2018-06-25T08:38:25.823Z,16.09
2018-06-25T08:39:06.394Z,16.17
2018-06-25T08:39:47.047Z,16.09
2018-06-25T08:40:27.593Z,16.2
2018-06-25T08:41:08.167Z,16.23
2018-06-25T08:41:48.740Z,16.2
2018-06-25T08:42:29.301Z,16.26
2018-06-25T08:43:09.847Z,16.29
2018-06-25T08:43:50.413Z,16.29
2018-06-25T08:44:31.018Z,16.29
2018-06-25T08:45:11.598Z,16.31